createdAt,value
2016-03-24T00:00:14.138Z,0.05
2016-03-24T00:01:01.375Z,0.09
2016-03-24T00:02:01.409Z,0.01
2016-03-24T00:03:07.724Z,0.02
2016-03-24T00:04:01.414Z,0
2016-03-24T00:05:08.308Z,0.02
2016-03-24T00:06:02.952Z,0.05
2016-03-24T00:07:14.188Z,-0.07
2016-03-24T00:08:01.488Z,-0.12
2016-03-24T00:09:20.697Z,-0.09
2016-03-24T00:10:01.494Z,-0.06
2016-03-24T00:11:01.527Z,-0.05
2016-03-24T00:12:01.515Z,-0.09
2016-03-24T00:13:01.532Z,-0.17
2016-03-24T00:14:14.348Z,-0.15
2016-03-24T00:15:14.304Z,-0.12
2016-03-24T00:16:01.572Z,-0.07
2016-03-24T00:17:02.340Z,-0.17
2016-03-24T00:18:14.312Z,-0.15
2016-03-24T00:19:01.612Z,-0.17
2016-03-24T00:20:27.335Z,-0.18
2016-03-24T00:21:01.617Z,-0.13
2016-03-24T00:22:01.650Z,-0.18
2016-03-24T00:23:01.670Z,-0.15
2016-03-24T00:24:01.656Z,-0.1
2016-03-24T00:25:01.675Z,-0.18
2016-03-24T00:26:14.411Z,-0.23
2016-03-24T00:27:01.695Z,-0.23
2016-03-24T00:28:01.714Z,-0.18
2016-03-24T00:29:02.326Z,-0.3
2016-03-24T00:30:01.750Z,-0.18
2016-03-24T00:31:01.862Z,-0.26
2016-03-24T00:32:01.756Z,-0.28
2016-03-24T00:33:14.620Z,-0.27
2016-03-24T00:34:01.792Z,-0.27
2016-03-24T00:35:01.794Z,-0.35
2016-03-24T00:36:01.829Z,-0.28
2016-03-24T00:37:08.082Z,-0.21
2016-03-24T00:38:01.835Z,-0.3
2016-03-24T00:39:01.915Z,-0.28
2016-03-24T00:40:01.840Z,-0.3
2016-03-24T00:41:01.857Z,-0.31
2016-03-24T00:42:01.877Z,-0.33
2016-03-24T00:43:02.504Z,-0.31
2016-03-24T00:44:01.866Z,-0.42
2016-03-24T00:45:01.899Z,-0.44
2016-03-24T00:46:01.919Z,-0.41
2016-03-24T00:47:01.921Z,-0.39
2016-03-24T00:48:02.080Z,-0.44
2016-03-24T00:49:02.145Z,-0.38
2016-03-24T00:50:01.960Z,-0.42
2016-03-24T00:51:02.588Z,-0.46
2016-03-24T00:52:02.184Z,-0.42
2016-03-24T00:53:02.000Z,-0.49
2016-03-24T00:54:02.627Z,-0.53
2016-03-24T00:55:08.301Z,-0.48
2016-03-24T00:56:02.133Z,-0.48
2016-03-24T00:57:02.245Z,-0.46
2016-03-24T00:58:08.309Z,-0.49
2016-03-24T00:59:02.344Z,-0.54
2016-03-24T01:00:02.097Z,-0.59
2016-03-24T01:01:02.099Z,-0.64
2016-03-24T01:02:01.930Z,-0.57
2016-03-24T01:03:02.119Z,-0.63
2016-03-24T01:04:14.842Z,-0.66
2016-03-24T01:05:08.391Z,-0.62
2016-03-24T01:06:02.175Z,-0.6
2016-03-24T01:07:02.255Z,-0.53
2016-03-24T01:08:02.165Z,-0.56
2016-03-24T01:09:02.213Z,-0.6
2016-03-24T01:10:02.171Z,-0.59
2016-03-24T01:11:08.485Z,-0.6
2016-03-24T01:12:02.222Z,-0.59
2016-03-24T01:13:02.335Z,-0.59
2016-03-24T01:14:02.244Z,-0.6
2016-03-24T01:15:08.512Z,-0.59
2016-03-24T01:16:02.468Z,-0.7
2016-03-24T01:17:15.017Z,-0.64
2016-03-24T01:18:02.301Z,-0.67
2016-03-24T01:19:21.478Z,-0.64
2016-03-24T01:20:02.306Z,-0.67
2016-03-24T01:21:02.309Z,-0.67
2016-03-24T01:22:02.358Z,-0.63
2016-03-24T01:23:02.330Z,-0.74
2016-03-24T01:24:02.333Z,-0.7
2016-03-24T01:25:08.601Z,-0.78
2016-03-24T01:26:02.416Z,-0.75
2016-03-24T01:27:21.594Z,-0.7
2016-03-24T01:28:08.797Z,-0.77
2016-03-24T01:29:02.409Z,-0.77
2016-03-24T01:30:02.427Z,-0.69
2016-03-24T01:31:02.430Z,-0.74
2016-03-24T01:32:02.479Z,-0.78
2016-03-24T01:33:02.451Z,-0.8
2016-03-24T01:34:02.469Z,-0.75
2016-03-24T01:35:02.472Z,-0.82
2016-03-24T01:36:02.490Z,-0.78
2016-03-24T01:37:02.508Z,-0.81
2016-03-24T01:38:02.511Z,-0.75
2016-03-24T01:39:02.561Z,-0.74
2016-03-24T01:40:02.532Z,-0.84
2016-03-24T01:41:04.113Z,-0.8
2016-03-24T01:42:02.553Z,-0.78
2016-03-24T01:43:03.993Z,-0.78
2016-03-24T01:44:02.574Z,-0.8
2016-03-24T01:45:05.639Z,-0.82
2016-03-24T01:46:02.423Z,-0.78
2016-03-24T01:47:02.613Z,-0.8
2016-03-24T01:48:02.632Z,-0.78
2016-03-24T01:49:02.634Z,-0.8
2016-03-24T01:50:02.637Z,-0.81
2016-03-24T01:51:02.639Z,-0.84
2016-03-24T01:52:04.143Z,-0.8
2016-03-24T01:53:04.114Z,-0.8
2016-03-24T01:54:02.945Z,-0.81
2016-03-24T01:55:02.698Z,-0.78
2016-03-24T01:56:04.123Z,-0.81
2016-03-24T01:57:02.718Z,-0.75
2016-03-24T01:58:02.925Z,-0.77
2016-03-24T01:59:02.739Z,-0.77
2016-03-24T02:00:02.773Z,-0.74
2016-03-24T02:01:02.776Z,-0.74
2016-03-24T02:02:02.778Z,-0.64
2016-03-24T02:03:15.516Z,-0.69
2016-03-24T02:04:02.799Z,-0.59
2016-03-24T02:05:02.849Z,-0.64
2016-03-24T02:06:02.852Z,-0.59
2016-03-24T02:07:02.824Z,-0.49
2016-03-24T02:08:02.841Z,-0.51
2016-03-24T02:09:03.063Z,-0.38
2016-03-24T02:10:02.878Z,-0.2
2016-03-24T02:11:02.897Z,-0.23
2016-03-24T02:12:02.899Z,-0.18
2016-03-24T02:13:03.043Z,-0.09
2016-03-24T02:14:02.935Z,0.01
2016-03-24T02:15:03.017Z,0.09
2016-03-24T02:16:02.941Z,0.19
2016-03-24T02:17:02.975Z,0.09
2016-03-24T02:18:15.712Z,0.29
2016-03-24T02:19:02.965Z,0.4
2016-03-24T02:20:02.999Z,0.37
2016-03-24T02:21:02.987Z,0.42
2016-03-24T02:22:03.004Z,0.45
2016-03-24T02:23:03.038Z,0.49
2016-03-24T02:24:03.041Z,0.47
2016-03-24T02:25:03.044Z,0.58
2016-03-24T02:26:03.078Z,0.66
2016-03-24T02:27:03.065Z,0.71
2016-03-24T02:28:03.208Z,0.86
2016-03-24T02:29:03.101Z,0.84
2016-03-24T02:30:15.823Z,0.94
2016-03-24T02:31:03.122Z,0.92
2016-03-24T02:32:03.281Z,0.96
2016-03-24T02:33:03.143Z,1.03
2016-03-24T02:34:03.146Z,1.12
2016-03-24T02:35:02.992Z,1.14
2016-03-24T02:36:03.167Z,1.13
2016-03-24T02:37:15.935Z,1.22
2016-03-24T02:38:03.188Z,1.24
2016-03-24T02:39:22.413Z,1.18
2016-03-24T02:40:03.209Z,1.28
2016-03-24T02:41:03.244Z,1.3
2016-03-24T02:42:03.261Z,1.28
2016-03-24T02:43:03.311Z,1.32
2016-03-24T02:44:03.299Z,1.31
2016-03-24T02:45:03.379Z,1.39
2016-03-24T02:46:03.288Z,1.5
2016-03-24T02:47:03.540Z,1.46
2016-03-24T02:48:03.340Z,1.57
2016-03-24T02:49:03.374Z,1.66
2016-03-24T02:50:03.361Z,1.6
2016-03-24T02:51:03.363Z,1.61
2016-03-24T02:52:03.398Z,1.63
2016-03-24T02:53:03.401Z,1.61
2016-03-24T02:54:16.154Z,1.63
2016-03-24T02:55:03.437Z,1.67
2016-03-24T02:56:03.440Z,1.75
2016-03-24T02:57:03.473Z,1.75
2016-03-24T02:58:09.726Z,1.7
2016-03-24T02:59:03.495Z,1.75
2016-03-24T03:00:03.466Z,1.7
2016-03-24T03:01:03.484Z,1.74
2016-03-24T03:02:03.517Z,1.74
2016-03-24T03:03:03.505Z,1.74
2016-03-24T03:04:03.539Z,1.75
2016-03-24T03:05:03.761Z,1.75
2016-03-24T03:06:03.560Z,1.81
2016-03-24T03:07:03.564Z,1.82
2016-03-24T03:08:03.581Z,1.7
2016-03-24T03:09:03.616Z,1.78
2016-03-24T03:10:03.602Z,1.75
2016-03-24T03:11:03.636Z,1.74
2016-03-24T03:12:03.638Z,1.71
2016-03-24T03:13:03.658Z,1.75
2016-03-24T03:14:03.660Z,1.76
2016-03-24T03:15:16.428Z,1.78
2016-03-24T03:16:10.040Z,1.76
2016-03-24T03:17:03.699Z,1.75
2016-03-24T03:18:03.701Z,1.71
2016-03-24T03:19:03.736Z,1.82
2016-03-24T03:20:09.988Z,1.79
2016-03-24T03:21:03.773Z,1.79
2016-03-24T03:22:03.760Z,1.82
2016-03-24T03:23:03.794Z,1.79
2016-03-24T03:24:03.812Z,1.81
2016-03-24T03:25:10.065Z,1.88
2016-03-24T03:26:03.832Z,1.92
2016-03-24T03:27:03.835Z,1.89
2016-03-24T03:28:03.870Z,1.88
2016-03-24T03:29:03.873Z,1.89
2016-03-24T03:30:03.875Z,1.89
2016-03-24T03:31:03.878Z,1.92
2016-03-24T03:32:03.880Z,1.86
2016-03-24T03:33:03.914Z,1.85
2016-03-24T03:34:03.933Z,1.93
2016-03-24T03:35:03.936Z,1.92
2016-03-24T03:36:03.970Z,1.97
2016-03-24T03:37:03.956Z,1.98
2016-03-24T03:38:03.975Z,2
2016-03-24T03:39:16.711Z,1.98
2016-03-24T03:40:03.995Z,2
2016-03-24T03:41:04.044Z,2
2016-03-24T03:42:04.048Z,2.04
2016-03-24T03:43:04.847Z,2
2016-03-24T03:44:04.069Z,2.01
2016-03-24T03:45:04.071Z,2.03
2016-03-24T03:46:10.355Z,2.01
2016-03-24T03:47:16.826Z,2.08
2016-03-24T03:48:04.126Z,2.07
2016-03-24T03:49:04.254Z,2
2016-03-24T03:50:04.147Z,2.04
2016-03-24T03:51:04.165Z,2.08
2016-03-24T03:52:04.153Z,2.1
2016-03-24T03:53:04.171Z,2.08
2016-03-24T03:54:04.190Z,2.08
2016-03-24T03:55:04.817Z,2.07
2016-03-24T03:56:16.994Z,2.1
2016-03-24T03:57:04.212Z,2.21
2016-03-24T03:58:04.279Z,2.18
2016-03-24T03:59:04.234Z,2.12
2016-03-24T04:00:04.346Z,2.18
2016-03-24T04:01:04.301Z,2.14
2016-03-24T04:02:04.898Z,2.19
2016-03-24T04:03:04.292Z,2.23
2016-03-24T04:04:04.342Z,2.19
2016-03-24T04:05:04.922Z,2.21
2016-03-24T04:06:04.956Z,2.19
2016-03-24T04:07:04.370Z,2.22
2016-03-24T04:08:04.372Z,2.28
2016-03-24T04:09:04.406Z,2.3
2016-03-24T04:10:04.408Z,2.36
2016-03-24T04:11:04.443Z,2.3
2016-03-24T04:12:04.445Z,2.3
2016-03-24T04:13:04.449Z,2.26
2016-03-24T04:14:11.310Z,2.34
2016-03-24T04:15:04.469Z,2.36
2016-03-24T04:16:04.503Z,2.36
2016-03-24T04:17:04.522Z,2.26
2016-03-24T04:18:04.540Z,2.3
2016-03-24T04:19:10.871Z,2.25
2016-03-24T04:20:10.889Z,2.21
2016-03-24T04:21:23.754Z,2.15
2016-03-24T04:22:04.566Z,2.22
2016-03-24T04:23:30.259Z,2.15
2016-03-24T04:24:14.150Z,2.16
2016-03-24T04:25:14.184Z,2.21
2016-03-24T04:26:14.187Z,2.21
2016-03-24T04:27:14.189Z,2.15
2016-03-24T04:28:14.207Z,2.12
2016-03-24T04:29:14.226Z,2.18
2016-03-24T04:30:14.244Z,2.19
2016-03-24T04:31:27.000Z,2.18
2016-03-24T04:32:14.281Z,2.18
2016-03-24T04:33:14.283Z,2.18
2016-03-24T04:34:27.022Z,2.14
2016-03-24T04:35:14.304Z,2.21
2016-03-24T04:36:27.169Z,2.19
2016-03-24T04:37:14.325Z,2.25
2016-03-24T04:38:14.344Z,2.23
2016-03-24T04:39:27.068Z,2.21
2016-03-24T04:40:27.163Z,2.21
2016-03-24T04:41:14.366Z,2.16
2016-03-24T04:42:14.401Z,2.19
2016-03-24T04:43:14.419Z,2.16
2016-03-24T04:44:14.407Z,2.1
2016-03-24T04:45:14.424Z,2.04
2016-03-24T04:46:14.443Z,2.07
2016-03-24T04:47:14.477Z,2.08
2016-03-24T04:48:27.201Z,2.03
2016-03-24T04:49:14.451Z,2
2016-03-24T04:50:14.516Z,1.98
2016-03-24T04:51:14.503Z,2
2016-03-24T04:52:27.274Z,1.98
2016-03-24T04:53:14.540Z,1.97
2016-03-24T04:54:34.373Z,2.01
2016-03-24T04:55:27.173Z,2.07
2016-03-24T04:56:45.894Z,2.05
2016-03-24T04:57:35.210Z,2.01
2016-03-24T04:58:45.915Z,1.98
2016-03-24T04:59:14.634Z,2.04
2016-03-24T05:00:14.622Z,2.1
2016-03-24T05:01:14.655Z,2.03
2016-03-24T05:02:14.674Z,2.07
2016-03-24T05:03:14.880Z,2
2016-03-24T05:04:14.726Z,1.92
2016-03-24T05:05:14.697Z,1.89
2016-03-24T05:06:14.825Z,1.82
2016-03-24T05:07:27.472Z,1.74
2016-03-24T05:08:15.019Z,1.64
2016-03-24T05:09:33.961Z,1.63
2016-03-24T05:10:27.510Z,1.5
2016-03-24T05:11:14.791Z,1.45
2016-03-24T05:12:14.794Z,1.46
2016-03-24T05:13:14.782Z,1.4
2016-03-24T05:14:14.799Z,1.3
2016-03-24T05:15:27.571Z,1.22
2016-03-24T05:16:14.836Z,1.21
2016-03-24T05:17:14.855Z,1.13
2016-03-24T05:18:14.857Z,1.16
2016-03-24T05:19:14.954Z,1.13
2016-03-24T05:20:14.894Z,1.06
2016-03-24T05:21:15.006Z,1.04
2016-03-24T05:22:14.915Z,0.86
2016-03-24T05:23:27.732Z,0.82
2016-03-24T05:24:14.936Z,0.91
2016-03-24T05:25:14.970Z,0.77
2016-03-24T05:26:14.972Z,0.78
2016-03-24T05:27:14.975Z,0.82
2016-03-24T05:28:21.278Z,0.74
2016-03-24T05:29:15.200Z,0.78
2016-03-24T05:30:15.014Z,0.74
2016-03-24T05:31:27.770Z,0.74
2016-03-24T05:32:15.036Z,0.73
2016-03-24T05:33:15.070Z,0.81
2016-03-24T05:34:27.809Z,0.81
2016-03-24T05:35:15.091Z,0.85
2016-03-24T05:36:15.124Z,0.74
2016-03-24T05:37:27.849Z,0.86
2016-03-24T05:38:15.224Z,0.82
2016-03-24T05:39:15.133Z,0.76
2016-03-24T05:40:15.150Z,0.74
2016-03-24T05:41:34.374Z,0.71
2016-03-24T05:42:21.441Z,0.71
2016-03-24T05:43:15.206Z,0.68
2016-03-24T05:44:15.193Z,0.63
2016-03-24T05:45:15.227Z,0.73
2016-03-24T05:46:15.230Z,0.67
2016-03-24T05:47:16.670Z,0.74
2016-03-24T05:48:21.519Z,0.74
2016-03-24T05:49:27.990Z,0.77
2016-03-24T05:50:15.287Z,0.77
2016-03-24T05:51:40.965Z,0.74
2016-03-24T05:52:24.843Z,0.78
2016-03-24T05:53:24.829Z,0.89
2016-03-24T05:54:31.129Z,0.85
2016-03-24T05:55:24.881Z,0.89
2016-03-24T05:56:24.884Z,0.95
2016-03-24T05:57:24.887Z,1
2016-03-24T05:58:24.906Z,1.04
2016-03-24T05:59:31.189Z,1.13
2016-03-24T06:00:31.207Z,1.07
2016-03-24T06:01:24.929Z,1.16
2016-03-24T06:02:24.978Z,1.28
2016-03-24T06:03:24.997Z,1.25
2016-03-24T06:04:24.983Z,1.42
2016-03-24T06:05:25.189Z,1.61
2016-03-24T06:06:31.380Z,1.82
2016-03-24T06:07:25.023Z,2.18
2016-03-24T06:08:44.276Z,2.79
2016-03-24T06:09:25.044Z,3.43
2016-03-24T06:10:25.062Z,4.45
2016-03-24T06:11:31.346Z,5.29
2016-03-24T06:12:50.755Z,5.98
2016-03-24T06:13:41.758Z,6.7
2016-03-24T06:14:29.088Z,6.87
2016-03-24T06:15:54.716Z,6.78
2016-03-24T06:16:35.532Z,6.71
2016-03-24T06:17:29.097Z,6.54
2016-03-24T06:18:29.162Z,6.35
2016-03-24T06:19:34.571Z,6.29
2016-03-24T06:20:29.104Z,6.12
2016-03-24T06:21:41.842Z,6.02
2016-03-24T06:22:35.391Z,5.92
2016-03-24T06:23:48.332Z,5.8
2016-03-24T06:24:41.881Z,5.62
2016-03-24T06:25:48.368Z,5.46
2016-03-24T06:26:29.198Z,5.43
2016-03-24T06:27:29.202Z,5.28
2016-03-24T06:28:29.204Z,5.22
2016-03-24T06:29:29.285Z,5.26
2016-03-24T06:30:29.241Z,5.29
2016-03-24T06:31:29.260Z,5.47
2016-03-24T06:32:35.637Z,5.55
2016-03-24T06:33:35.546Z,5.58
2016-03-24T06:34:29.314Z,5.49
2016-03-24T06:35:29.333Z,5.55
2016-03-24T06:36:35.617Z,5.58
2016-03-24T06:37:35.620Z,5.62
2016-03-24T06:38:29.372Z,5.56
2016-03-24T06:39:29.359Z,5.67
2016-03-24T06:40:30.814Z,5.74
2016-03-24T06:41:29.396Z,5.79
2016-03-24T06:42:29.430Z,5.91
2016-03-24T06:43:29.433Z,5.92
2016-03-24T06:44:42.185Z,5.97
2016-03-24T06:45:29.469Z,6.06
2016-03-24T06:46:48.706Z,6.09
2016-03-24T06:47:29.506Z,6.1
2016-03-24T06:49:30.338Z,6.29
2016-03-24T06:50:30.138Z,6.43
2016-03-24T06:51:29.563Z,6.5
2016-03-24T06:52:29.582Z,6.57
2016-03-24T06:53:42.349Z,6.64
2016-03-24T06:54:30.259Z,6.8
2016-03-24T06:55:48.854Z,6.86
2016-03-24T06:56:30.280Z,6.9
2016-03-24T06:57:29.673Z,7.13
2016-03-24T06:58:29.692Z,7.13
2016-03-24T06:59:29.694Z,7.15
2016-03-24T07:00:42.432Z,7.07
2016-03-24T07:01:42.465Z,6.92
2016-03-24T07:02:29.749Z,6.83
2016-03-24T07:03:48.970Z,6.59
2016-03-24T07:04:42.520Z,6.56
2016-03-24T07:05:48.992Z,6.49
2016-03-24T07:06:29.792Z,6.62
2016-03-24T07:07:55.481Z,7.19
2016-03-24T07:08:30.453Z,7.41
2016-03-24T07:10:01.175Z,7.85
2016-03-24T07:11:10.725Z,8.13
2016-03-24T07:11:45.086Z,8.39
2016-03-24T07:12:45.072Z,8.57
2016-03-24T07:13:45.153Z,9.03
2016-03-24T07:14:57.860Z,10.12
2016-03-24T07:15:45.331Z,10.89
2016-03-24T07:16:57.911Z,11.77
2016-03-24T07:17:45.196Z,12.73
2016-03-24T07:18:45.198Z,13.4
2016-03-24T07:19:45.186Z,14.13
2016-03-24T07:20:45.360Z,14.44
2016-03-24T07:21:45.237Z,14.58
2016-03-24T07:22:51.553Z,14.81
2016-03-24T07:23:45.290Z,14.93
2016-03-24T07:24:58.058Z,15.27
2016-03-24T07:25:45.327Z,15.39
2016-03-24T07:26:45.345Z,15.7
2016-03-24T07:27:51.613Z,15.94
2016-03-24T07:28:45.366Z,16.17
2016-03-24T07:29:45.385Z,16.25
2016-03-24T07:30:45.465Z,16.21
2016-03-24T07:31:45.436Z,16.16
2016-03-24T07:32:45.440Z,16.29
2016-03-24T07:33:45.473Z,16.49
2016-03-24T07:34:45.492Z,16.74
2016-03-24T07:35:58.323Z,17.12
2016-03-24T07:36:45.528Z,17.28
2016-03-24T07:37:45.562Z,17.56
2016-03-24T07:38:46.189Z,17.63
2016-03-24T07:39:51.864Z,17.44
2016-03-24T07:40:58.367Z,17.2
2016-03-24T07:41:45.682Z,16.97
2016-03-24T07:43:04.841Z,16.62
2016-03-24T07:43:45.703Z,15.94
2016-03-24T07:44:45.706Z,15.17
2016-03-24T07:45:58.458Z,13.83
2016-03-24T07:46:46.383Z,13.02
2016-03-24T07:47:45.760Z,11.86
2016-03-24T07:48:45.780Z,11.19
2016-03-24T07:49:52.672Z,10.48
2016-03-24T07:50:45.831Z,9.95
2016-03-24T07:51:46.460Z,9.45
2016-03-24T07:52:58.587Z,9.05
2016-03-24T07:53:58.621Z,8.86
2016-03-24T07:54:45.905Z,8.61
2016-03-24T07:55:45.923Z,8.42
2016-03-24T07:56:45.957Z,8.35
2016-03-24T07:57:45.991Z,8.17
2016-03-24T07:58:52.854Z,8.08
2016-03-24T07:59:46.137Z,8.09
2016-03-24T08:00:46.029Z,7.99
2016-03-24T08:01:46.096Z,7.88
2016-03-24T08:02:46.067Z,7.84
2016-03-24T08:03:46.085Z,7.87
2016-03-24T08:04:46.104Z,7.87
2016-03-24T08:05:46.137Z,7.72
2016-03-24T08:06:58.909Z,7.64
2016-03-24T08:07:46.184Z,7.69
2016-03-24T08:09:05.405Z,7.64
2016-03-24T08:09:46.205Z,7.66
2016-03-24T08:11:48.835Z,7.69
2016-03-24T08:12:01.429Z,7.67
2016-03-24T08:13:01.416Z,7.67
2016-03-24T08:14:01.465Z,7.7
2016-03-24T08:15:01.483Z,7.74
2016-03-24T08:16:01.549Z,7.75
2016-03-24T08:17:01.489Z,7.75
2016-03-24T08:18:01.523Z,7.74
2016-03-24T08:19:01.526Z,7.83
2016-03-24T08:20:01.544Z,7.85
2016-03-24T08:21:01.579Z,8.02
2016-03-24T08:22:01.612Z,8.02
2016-03-24T08:23:01.661Z,8.11
2016-03-24T08:24:03.071Z,7.95
2016-03-24T08:25:01.667Z,7.98
2016-03-24T08:26:01.670Z,7.98
2016-03-24T08:27:14.438Z,8.05
2016-03-24T08:28:14.456Z,8.02
2016-03-24T08:29:01.756Z,8.03
2016-03-24T08:30:20.946Z,8.11
2016-03-24T08:31:08.058Z,8.26
2016-03-24T08:32:01.779Z,8.36
2016-03-24T08:33:01.782Z,8.39
2016-03-24T08:34:01.800Z,8.38
2016-03-24T08:35:01.808Z,8.41
2016-03-24T08:36:01.842Z,8.34
2016-03-24T08:37:02.437Z,8.41
2016-03-24T08:38:01.816Z,8.41
2016-03-24T08:39:14.552Z,8.44
2016-03-24T08:40:01.889Z,8.41
2016-03-24T08:41:14.590Z,8.45
2016-03-24T08:42:02.477Z,8.42
2016-03-24T08:43:01.897Z,8.52
2016-03-24T08:44:14.627Z,8.5
2016-03-24T08:45:01.893Z,8.5
2016-03-24T08:46:27.597Z,8.6
2016-03-24T08:47:14.660Z,8.52
2016-03-24T08:48:01.927Z,8.56
2016-03-24T08:49:01.943Z,8.68
2016-03-24T08:50:01.960Z,8.75
2016-03-24T08:51:01.977Z,8.74
2016-03-24T08:52:02.027Z,8.82
2016-03-24T08:53:06.075Z,8.86
2016-03-24T08:54:14.797Z,8.93
2016-03-24T08:55:02.658Z,8.87
2016-03-24T08:56:02.082Z,9.02
2016-03-24T08:57:02.116Z,9.08
2016-03-24T08:58:02.117Z,9.08
2016-03-24T08:59:02.151Z,9.13
2016-03-24T09:00:02.138Z,9.16
2016-03-24T09:01:08.719Z,9.26
2016-03-24T09:02:08.456Z,9.26
2016-03-24T09:03:02.209Z,9.42
2016-03-24T09:04:02.336Z,9.36
2016-03-24T09:05:02.230Z,9.37
2016-03-24T09:06:02.295Z,9.47
2016-03-24T09:07:15.000Z,9.51
2016-03-24T09:08:02.285Z,9.63
2016-03-24T09:09:21.521Z,9.54
2016-03-24T09:10:02.337Z,9.59
2016-03-24T09:11:28.030Z,9.62
2016-03-24T09:12:02.374Z,9.55
2016-03-24T09:14:02.613Z,9.66
2016-03-24T09:15:02.429Z,9.76
2016-03-24T09:16:02.431Z,9.76
2016-03-24T09:17:15.199Z,9.84
2016-03-24T09:18:02.468Z,10.02
2016-03-24T09:19:28.160Z,9.99
2016-03-24T09:20:12.035Z,9.91
2016-03-24T09:21:12.070Z,9.95
2016-03-24T09:22:12.120Z,9.99
2016-03-24T09:23:12.200Z,10.05
2016-03-24T09:24:12.734Z,10.03
2016-03-24T09:25:12.768Z,10.02
2016-03-24T09:26:24.914Z,10.09
2016-03-24T09:27:12.461Z,10.13
2016-03-24T09:28:12.198Z,10.06
2016-03-24T09:29:12.217Z,10.07
2016-03-24T09:30:24.987Z,9.95
2016-03-24T09:31:18.534Z,9.92
2016-03-24T09:32:12.271Z,9.92
2016-03-24T09:33:12.289Z,10.02
2016-03-24T09:34:12.339Z,9.94
2016-03-24T09:35:12.325Z,9.95
2016-03-24T09:36:12.360Z,10.07
2016-03-24T09:37:12.363Z,10.15
2016-03-24T09:38:12.397Z,10.33
2016-03-24T09:39:12.415Z,10.57
2016-03-24T09:40:12.418Z,10.69
2016-03-24T09:41:12.421Z,10.95
2016-03-24T09:42:12.657Z,11.23
2016-03-24T09:43:12.488Z,11.4
2016-03-24T09:44:12.522Z,11.53
2016-03-24T09:45:12.510Z,11.6
2016-03-24T09:46:12.543Z,11.74
2016-03-24T09:47:12.562Z,11.83
2016-03-24T09:48:12.580Z,11.99
2016-03-24T09:49:12.598Z,11.95
2016-03-24T09:50:12.616Z,12.12
2016-03-24T09:51:12.728Z,12.23
2016-03-24T09:52:14.153Z,12.4
2016-03-24T09:53:14.093Z,12.75
2016-03-24T09:54:12.689Z,12.78
2016-03-24T09:55:12.724Z,12.94
2016-03-24T09:56:12.726Z,12.99
2016-03-24T09:57:12.775Z,13.03
2016-03-24T09:58:12.779Z,13.3
2016-03-24T09:59:25.533Z,13.27
2016-03-24T10:00:12.846Z,13.36
2016-03-24T10:01:12.850Z,13.33
2016-03-24T10:02:19.148Z,13.27
2016-03-24T10:03:12.870Z,13.23
2016-03-24T10:04:13.545Z,13.3
2016-03-24T10:05:14.328Z,13.24
2016-03-24T10:06:12.941Z,13.31
2016-03-24T10:07:12.944Z,13.16
2016-03-24T10:08:12.993Z,13.05
2016-03-24T10:09:14.432Z,13.01
2016-03-24T10:10:13.030Z,12.99
2016-03-24T10:11:13.063Z,12.95
2016-03-24T10:12:13.066Z,12.88
2016-03-24T10:13:13.100Z,12.88
2016-03-24T10:14:25.871Z,12.9
2016-03-24T10:15:13.215Z,12.72
2016-03-24T10:16:13.140Z,12.75
2016-03-24T10:17:13.220Z,12.73
2016-03-24T10:18:13.207Z,12.73
2016-03-24T10:19:14.038Z,12.72
2016-03-24T10:20:13.291Z,12.43
2016-03-24T10:21:14.778Z,12.32
2016-03-24T10:22:26.080Z,12.18
2016-03-24T10:23:26.099Z,12.05
2016-03-24T10:24:39.007Z,11.96
2016-03-24T10:25:26.244Z,11.95
2016-03-24T10:26:13.509Z,12.03
2016-03-24T10:27:13.997Z,12.1
2016-03-24T10:28:13.500Z,12.05
2016-03-24T10:29:13.440Z,12.05
2016-03-24T10:30:26.321Z,12.12
2016-03-24T10:31:13.477Z,12.15
2016-03-24T10:32:13.558Z,12.4
2016-03-24T10:33:13.514Z,12.75
2016-03-24T10:34:19.797Z,12.93
2016-03-24T10:35:19.831Z,13.08
2016-03-24T10:36:13.569Z,13.3
2016-03-24T10:37:13.680Z,13.26
2016-03-24T10:38:13.823Z,13.47
2016-03-24T10:39:32.829Z,13.7
2016-03-24T10:40:20.016Z,13.83
2016-03-24T10:41:32.896Z,14
2016-03-24T10:42:35.963Z,14.07
2016-03-24T10:43:35.996Z,14.28
2016-03-24T10:44:36.013Z,14.33
2016-03-24T10:45:36.063Z,14.45
2016-03-24T10:46:36.066Z,14.34
2016-03-24T10:47:48.818Z,14.33
2016-03-24T10:48:36.712Z,14.4
2016-03-24T10:49:55.449Z,14.31
2016-03-24T10:50:36.749Z,14.33
2016-03-24T10:51:36.204Z,14.11
2016-03-24T10:52:36.176Z,14.08
2016-03-24T10:53:55.210Z,14.26
2016-03-24T10:54:39.213Z,14.25
2016-03-24T10:56:04.778Z,14.11
2016-03-24T10:56:51.890Z,14
2016-03-24T10:58:11.081Z,14.01
2016-03-24T10:58:39.192Z,13.97
2016-03-24T10:59:39.226Z,13.91
2016-03-24T11:00:48.806Z,13.55
2016-03-24T11:01:48.810Z,13.23
2016-03-24T11:03:01.642Z,13.08
2016-03-24T11:03:48.847Z,13.06
2016-03-24T11:05:01.490Z,12.91
2016-03-24T11:05:48.742Z,12.88
2016-03-24T11:07:08.292Z,12.86
2016-03-24T11:08:01.701Z,12.84
2016-03-24T11:08:48.828Z,12.76
2016-03-24T11:10:01.987Z,12.4
2016-03-24T11:10:48.880Z,12.17
2016-03-24T11:11:49.024Z,12.08
2016-03-24T11:12:49.074Z,11.97
2016-03-24T11:13:55.358Z,11.68
2016-03-24T11:14:49.141Z,11.53
2016-03-24T11:15:49.191Z,11.35
2016-03-24T11:16:49.146Z,11.15
2016-03-24T11:17:49.166Z,11.01
2016-03-24T11:18:49.199Z,10.98
2016-03-24T11:19:49.905Z,10.75
2016-03-24T11:20:49.829Z,10.65
2016-03-24T11:22:02.004Z,10.49
2016-03-24T11:23:02.054Z,10.45
2016-03-24T11:24:08.509Z,10.55
2016-03-24T11:24:49.341Z,10.62
2016-03-24T11:26:15.015Z,10.77
2016-03-24T11:26:58.955Z,10.92
2016-03-24T11:27:58.974Z,11.02
2016-03-24T11:28:59.226Z,11.4
2016-03-24T11:29:59.009Z,11.73
2016-03-24T11:30:59.201Z,11.89
2016-03-24T11:31:59.078Z,12.1
2016-03-24T11:33:11.878Z,12.37
2016-03-24T11:33:59.100Z,12.48
2016-03-24T11:34:59.133Z,12.62
2016-03-24T11:35:59.136Z,12.87
2016-03-24T11:37:11.919Z,12.93
2016-03-24T11:37:59.172Z,12.98
2016-03-24T11:39:11.972Z,12.93
2016-03-24T11:39:59.225Z,12.87
2016-03-24T11:41:18.477Z,12.98
2016-03-24T11:42:12.011Z,12.81
2016-03-24T11:42:59.295Z,12.62
2016-03-24T11:44:18.610Z,12.51
2016-03-24T11:44:59.332Z,12.35
2016-03-24T11:47:08.946Z,12.08
2016-03-24T11:48:08.950Z,12.02
2016-03-24T11:49:15.280Z,12.02
2016-03-24T11:50:10.485Z,12.07
2016-03-24T11:51:09.035Z,12.11
2016-03-24T11:52:09.022Z,12.12
2016-03-24T11:53:09.071Z,12.17
2016-03-24T11:54:15.356Z,12.07
2016-03-24T11:55:09.124Z,12.03
2016-03-24T11:56:21.877Z,11.97
2016-03-24T11:57:10.051Z,12
2016-03-24T11:58:09.867Z,12.17
2016-03-24T11:59:09.213Z,12.33
2016-03-24T12:00:09.215Z,12.44
2016-03-24T12:01:09.343Z,12.47
2016-03-24T12:02:09.284Z,12.7
2016-03-24T12:03:09.271Z,12.7
2016-03-24T12:04:09.320Z,12.72
2016-03-24T12:05:09.354Z,12.62
2016-03-24T12:06:15.622Z,12.47
2016-03-24T12:07:09.375Z,12.47
2016-03-24T12:08:09.847Z,12.35
2016-03-24T12:09:09.380Z,12.4
2016-03-24T12:10:09.415Z,12.29
2016-03-24T12:11:22.183Z,12.39
2016-03-24T12:12:09.560Z,12.12
2016-03-24T12:13:09.500Z,12.08
2016-03-24T12:14:09.613Z,12.03
2016-03-24T12:15:09.538Z,12.15
2016-03-24T12:16:15.821Z,12
2016-03-24T12:17:09.591Z,12.26
2016-03-24T12:18:09.593Z,12.25
2016-03-24T12:19:15.907Z,12.36
2016-03-24T12:20:09.660Z,12.37
2016-03-24T12:21:09.662Z,12.21
2016-03-24T12:22:09.681Z,12.15
2016-03-24T12:23:09.731Z,11.97
2016-03-24T12:24:09.733Z,11.88
2016-03-24T12:25:09.752Z,11.83
2016-03-24T12:26:09.785Z,11.85
2016-03-24T12:27:09.804Z,11.89
2016-03-24T12:28:22.556Z,12.07
2016-03-24T12:29:09.841Z,12.07
2016-03-24T12:30:09.859Z,12.23
2016-03-24T12:31:09.878Z,12.3
2016-03-24T12:32:16.176Z,12.32
2016-03-24T12:33:09.929Z,12.35
2016-03-24T12:34:09.948Z,12.35
2016-03-24T12:35:09.997Z,12.35
2016-03-24T12:36:22.734Z,12.28
2016-03-24T12:37:16.269Z,12.18
2016-03-24T12:38:10.037Z,12.18
2016-03-24T12:39:10.039Z,12.37
2016-03-24T12:40:10.073Z,12.43
2016-03-24T12:41:10.123Z,12.65
2016-03-24T12:42:10.125Z,12.81
2016-03-24T12:43:10.144Z,12.99
2016-03-24T12:44:22.896Z,12.93
2016-03-24T12:45:10.181Z,12.87
2016-03-24T12:46:29.420Z,12.88
2016-03-24T12:47:11.638Z,12.84
2016-03-24T12:48:10.235Z,12.75
2016-03-24T12:49:22.988Z,12.76
2016-03-24T12:50:10.304Z,12.76
2016-03-24T12:51:10.321Z,12.83
2016-03-24T12:52:11.730Z,12.8
2016-03-24T12:53:11.812Z,13.01
2016-03-24T12:54:10.377Z,12.94
2016-03-24T12:55:23.145Z,12.75
2016-03-24T12:56:10.429Z,12.76
2016-03-24T12:57:36.091Z,12.5
2016-03-24T12:58:23.185Z,12.48
2016-03-24T12:59:10.468Z,12.28
2016-03-24T13:00:23.283Z,12.1
2016-03-24T13:01:10.520Z,11.97
2016-03-24T13:02:36.214Z,11.74
2016-03-24T13:03:23.292Z,11.78
2016-03-24T13:04:41.907Z,11.73
2016-03-24T13:05:29.831Z,11.65
2016-03-24T13:06:10.643Z,11.65
2016-03-24T13:07:10.646Z,11.51
2016-03-24T13:08:11.273Z,11.52
2016-03-24T13:09:11.307Z,11.38
2016-03-24T13:10:23.451Z,11.3
2016-03-24T13:11:10.766Z,11.19
2016-03-24T13:12:10.769Z,11.18
2016-03-24T13:13:10.802Z,11.07
2016-03-24T13:14:11.228Z,11.07